Time;durP1;ratioP1;P1;durP2;ratioP2;P2;SDS_P1;SDS_P2;PMS_P1;PMS_P2;Temp;Humidity;BMP_temperature;BMP_pressure;BME280_temperature;BME280_humidity;BME280_pressure;Samples;Min_cycle;Max_cycle;Signal;HPM_P1;HPM_P2
2023/05/06 00:01:02;;;;;;;90.15;53.50;;;19.10;75.70;;;;;;4994755;28;95647;-73
2023/05/06 00:03:28;;;;;;;91.03;53.55;;;19.10;75.70;;;;;;4994924;28;96735;-74
2023/05/06 00:05:54;;;;;;;91.00;53.45;;;19.10;75.60;;;;;;4991861;28;97663;-76
2023/05/06 00:08:20;;;;;;;91.28;53.50;;;19.10;75.70;;;;;;4996271;28;95908;-74
2023/05/06 00:10:45;;;;;;;90.00;53.60;;;19.10;76.40;;;;;;4997996;28;94035;-72
2023/05/06 00:13:11;;;;;;;91.07;53.55;;;19.00;75.60;;;;;;4999163;28;93946;-73
2023/05/06 00:15:38;;;;;;;91.78;53.45;;;19.00;75.60;;;;;;4997789;28;94664;-74
2023/05/06 00:18:04;;;;;;;90.18;53.47;;;19.00;75.60;;;;;;4997586;28;95442;-74
2023/05/06 00:20:30;;;;;;;90.20;53.40;;;19.00;75.60;;;;;;4994832;28;96167;-73
2023/05/06 00:22:55;;;;;;;89.72;53.33;;;19.00;75.50;;;;;;4993375;28;94118;-75
2023/05/06 00:25:21;;;;;;;90.40;53.25;;;19.00;75.50;;;;;;4999625;28;95269;-76
2023/05/06 00:27:47;;;;;;;90.45;53.58;;;19.00;75.50;;;;;;4990022;28;94773;-74
2023/05/06 00:30:13;;;;;;;90.45;53.30;;;19.00;75.50;;;;;;4985730;28;94236;-73
2023/05/06 00:32:38;;;;;;;90.85;53.72;;;19.00;75.50;;;;;;5000187;28;95121;-74
2023/05/06 00:35:04;;;;;;;89.53;53.15;;;19.00;75.50;;;;;;5000231;28;94120;-74
2023/05/06 00:37:30;;;;;;;89.65;53.28;;;19.00;75.50;;;;;;4989362;28;98485;-72
2023/05/06 00:39:56;;;;;;;90.30;53.60;;;19.00;75.40;;;;;;4991590;28;95880;-72
2023/05/06 00:42:22;;;;;;;89.32;53.17;;;18.90;75.40;;;;;;4998306;28;94265;-75
2023/05/06 00:44:51;;;;;;;89.70;53.28;;;18.90;75.40;;;;;;4993657;28;95675;-73
2023/05/06 00:47:17;;;;;;;89.75;53.33;;;18.90;75.30;;;;;;4998631;28;95470;-75
2023/05/06 00:49:47;;;;;;;90.07;53.28;;;18.90;75.40;;;;;;4998771;28;94254;-75
2023/05/06 00:52:13;;;;;;;90.13;53.30;;;18.90;75.30;;;;;;4997899;28;94749;-75
2023/05/06 00:54:39;;;;;;;90.43;53.05;;;18.90;75.30;;;;;;4993418;28;95692;-74
2023/05/06 00:57:05;;;;;;;90.63;53.28;;;18.90;75.30;;;;;;4999165;28;95082;-73
2023/05/06 00:59:31;;;;;;;90.18;53.33;;;18.90;75.30;;;;;;5000640;28;94828;-75
2023/05/06 01:01:57;;;;;;;90.40;53.25;;;18.90;75.20;;;;;;5001802;28;94447;-73
2023/05/06 01:04:23;;;;;;;88.80;52.90;;;18.90;75.20;;;;;;4998113;28;97749;-73
2023/05/06 01:07:07;;;;;;;90.18;53.10;;;18.90;75.20;;;;;;4996109;28;96147;-75
2023/05/06 01:09:56;;;;;;;89.55;53.30;;;18.80;75.10;;;;;;4990681;28;96691;-71
2023/05/06 01:12:47;;;;;;;89.35;53.08;;;18.80;75.20;;;;;;4995540;28;94542;-74
2023/05/06 01:15:24;;;;;;;89.97;53.10;;;18.90;75.20;;;;;;4993092;28;95277;-75
2023/05/06 01:17:53;;;;;;;89.32;53.08;;;18.90;75.10;;;;;;4994863;28;94220;-73
2023/05/06 01:20:20;;;;;;;89.43;53.25;;;18.80;75.00;;;;;;5000977;28;94496;-73
2023/05/06 01:22:48;;;;;;;89.97;53.15;;;18.80;75.00;;;;;;4996118;28;95052;-72
2023/05/06 01:25:20;;;;;;;89.53;53.17;;;18.80;75.00;;;;;;5000328;28;94572;-75
2023/05/06 01:27:46;;;;;;;91.30;53.42;;;18.80;75.10;;;;;;5000480;28;94548;-74
2023/05/06 01:30:15;;;;;;;90.63;53.17;;;18.80;75.00;;;;;;4995328;28;94830;-74
2023/05/06 01:33:08;;;;;;;89.00;52.95;;;18.80;74.90;;;;;;4997227;28;94651;-73
2023/05/06 01:35:54;;;;;;;89.22;53.15;;;18.80;75.00;;;;;;4995097;28;96328;-74
2023/05/06 01:38:53;;;;;;;89.57;53.25;;;18.80;74.90;;;;;;5004514;28;95385;-75
2023/05/06 01:41:21;;;;;;;89.18;52.75;;;18.80;74.80;;;;;;4998545;28;94970;-74
2023/05/06 01:43:47;;;;;;;91.50;53.22;;;18.80;74.80;;;;;;4995766;28;94422;-73
2023/05/06 01:46:18;;;;;;;89.97;53.10;;;18.80;74.80;;;;;;4996325;28;94495;-75
2023/05/06 01:48:45;;;;;;;89.40;53.15;;;18.80;74.80;;;;;;4995457;28;94694;-75
2023/05/06 01:51:11;;;;;;;89.25;53.03;;;18.70;74.70;;;;;;4993552;28;95707;-74
2023/05/06 01:53:37;;;;;;;89.07;53.08;;;18.70;74.70;;;;;;4992676;28;94268;-74
2023/05/06 01:56:03;;;;;;;88.90;52.97;;;18.70;75.40;;;;;;4990329;28;94718;-71
2023/05/06 01:58:29;;;;;;;89.40;53.08;;;18.70;74.60;;;;;;4996784;28;94388;-71
2023/05/06 02:00:55;;;;;;;89.18;53.13;;;18.70;74.60;;;;;;4995420;28;95521;-74
2023/05/06 02:03:20;;;;;;;89.03;53.13;;;18.70;74.60;;;;;;4997255;28;94352;-75
2023/05/06 02:05:46;;;;;;;89.32;53.13;;;18.70;74.60;;;;;;4999716;28;96369;-72
2023/05/06 02:08:11;;;;;;;89.88;53.22;;;18.70;74.70;;;;;;5001477;28;94947;-71
2023/05/06 02:10:37;;;;;;;89.55;53.13;;;18.60;74.60;;;;;;4996866;28;94442;-75
2023/05/06 02:13:03;;;;;;;89.47;53.08;;;18.60;74.50;;;;;;4992678;28;94827;-74
2023/05/06 02:15:29;;;;;;;89.22;53.05;;;18.60;74.50;;;;;;4982558;28;95332;-71
2023/05/06 02:17:56;;;;;;;89.00;52.97;;;18.60;74.60;;;;;;4983106;28;95171;-71
2023/05/06 02:20:21;;;;;;;89.85;53.45;;;18.60;74.50;;;;;;4982783;28;96324;-74
2023/05/06 02:22:47;;;;;;;89.00;53.05;;;18.60;74.30;;;;;;4982454;28;94719;-75
2023/05/06 02:25:13;;;;;;;88.72;52.65;;;18.60;74.40;;;;;;4980810;28;95233;-74
2023/05/06 02:27:38;;;;;;;89.55;53.17;;;18.60;74.50;;;;;;4982937;28;94838;-73
2023/05/06 02:30:05;;;;;;;89.38;53.03;;;18.60;74.30;;;;;;4979667;28;95779;-72
2023/05/06 02:32:31;;;;;;;88.78;52.97;;;18.60;74.40;;;;;;4984403;28;95250;-75
2023/05/06 02:34:56;;;;;;;88.82;52.90;;;18.60;74.30;;;;;;4978936;28;95430;-74
2023/05/06 02:37:22;;;;;;;88.57;52.70;;;18.60;74.30;;;;;;4989477;28;95766;-74
2023/05/06 02:39:48;;;;;;;89.38;53.03;;;18.60;74.30;;;;;;4984567;28;99811;-72
2023/05/06 02:42:14;;;;;;;89.90;53.22;;;18.60;74.20;;;;;;4983217;28;94234;-75
2023/05/06 02:44:40;;;;;;;88.50;52.90;;;18.60;74.30;;;;;;4983214;28;95741;-74
2023/05/06 02:47:06;;;;;;;88.93;53.08;;;18.50;74.30;;;;;;4984071;28;96167;-72
2023/05/06 02:49:31;;;;;;;89.10;53.15;;;18.60;74.30;;;;;;4983152;28;95754;-73
2023/05/06 02:51:57;;;;;;;89.35;53.20;;;18.50;74.10;;;;;;4987452;28;95828;-73
2023/05/06 02:54:23;;;;;;;89.15;53.17;;;18.50;74.30;;;;;;4987836;28;99459;-76
2023/05/06 02:56:48;;;;;;;89.15;52.95;;;18.50;74.10;;;;;;4984973;28;94989;-74
2023/05/06 02:59:15;;;;;;;88.65;52.85;;;18.50;74.20;;;;;;4978256;28;94653;-73
2023/05/06 03:01:41;;;;;;;88.63;52.80;;;18.50;74.10;;;;;;4983863;28;95953;-75
2023/05/06 03:04:07;;;;;;;88.68;53.13;;;18.50;74.10;;;;;;4981726;28;100890;-72
2023/05/06 03:06:32;;;;;;;88.82;52.97;;;18.50;74.10;;;;;;4978863;28;95683;-73
2023/05/06 03:08:58;;;;;;;89.47;53.15;;;18.50;74.10;;;;;;4993712;28;95064;-75
2023/05/06 03:11:24;;;;;;;87.97;52.53;;;18.50;74.10;;;;;;4986072;28;94455;-76
2023/05/06 03:13:50;;;;;;;90.65;53.15;;;18.50;74.10;;;;;;4981700;28;99064;-73
2023/05/06 03:16:16;;;;;;;88.68;52.92;;;18.50;74.10;;;;;;4985503;28;95688;-73
2023/05/06 03:18:41;;;;;;;89.07;52.78;;;18.50;74.20;;;;;;4985637;28;94883;-73
2023/05/06 03:21:07;;;;;;;88.18;52.72;;;18.50;74.10;;;;;;4979848;28;95704;-72
2023/05/06 03:23:32;;;;;;;88.78;52.83;;;18.40;74.00;;;;;;4988590;28;95608;-74
2023/05/06 03:25:58;;;;;;;88.88;53.00;;;18.40;74.00;;;;;;4987666;28;94849;-76
2023/05/06 03:28:24;;;;;;;88.82;53.05;;;18.40;74.00;;;;;;4986255;28;95129;-74
2023/05/06 03:30:49;;;;;;;88.55;52.75;;;18.40;74.00;;;;;;4994012;28;94998;-72
2023/05/06 03:33:15;;;;;;;88.47;52.65;;;18.40;73.80;;;;;;4986122;28;102361;-72
2023/05/06 03:35:41;;;;;;;89.03;53.03;;;18.40;73.90;;;;;;4996249;28;95842;-75
2023/05/06 03:38:06;;;;;;;89.20;52.83;;;18.40;73.80;;;;;;4992348;28;96053;-78
2023/05/06 03:40:32;;;;;;;90.43;52.90;;;18.40;73.80;;;;;;4994418;28;95323;-74
2023/05/06 03:42:58;;;;;;;88.72;52.83;;;18.40;73.80;;;;;;4998268;28;94817;-74
2023/05/06 03:45:24;;;;;;;88.50;52.63;;;18.40;73.80;;;;;;4996995;28;94822;-75
2023/05/06 03:47:49;;;;;;;88.22;52.78;;;18.40;73.80;;;;;;4997682;28;95277;-70
2023/05/06 03:50:15;;;;;;;88.57;52.78;;;18.40;73.80;;;;;;4996117;28;95729;-76
2023/05/06 03:52:41;;;;;;;100.95;53.10;;;18.40;73.80;;;;;;4998995;28;95542;-70
2023/05/06 03:55:07;;;;;;;88.20;52.72;;;18.40;73.80;;;;;;4993438;28;94293;-72
2023/05/06 03:57:33;;;;;;;89.97;52.70;;;18.40;73.80;;;;;;4998094;28;95551;-71
2023/05/06 03:59:58;;;;;;;88.55;52.92;;;18.40;73.80;;;;;;4996519;28;95232;-72
2023/05/06 04:02:24;;;;;;;90.05;52.67;;;18.40;73.80;;;;;;4987854;28;96251;-71
2023/05/06 04:04:50;;;;;;;89.82;52.63;;;18.30;74.50;;;;;;4988458;28;94892;-71
2023/05/06 04:07:15;;;;;;;88.60;52.92;;;18.30;74.00;;;;;;4996617;28;95813;-71
2023/05/06 04:09:41;;;;;;;88.50;52.95;;;18.30;73.80;;;;;;4989621;28;96117;-71
2023/05/06 04:12:07;;;;;;;87.85;52.53;;;18.30;73.80;;;;;;4994419;28;95339;-71
2023/05/06 04:14:32;;;;;;;88.03;52.47;;;18.30;73.80;;;;;;5000519;28;94921;-70
2023/05/06 04:16:58;;;;;;;88.47;52.90;;;18.30;73.80;;;;;;5001637;28;94319;-72
2023/05/06 04:19:24;;;;;;;88.95;52.65;;;18.30;73.80;;;;;;4996446;28;93209;-72
2023/05/06 04:21:50;;;;;;;88.38;52.83;;;18.30;73.80;;;;;;4999427;28;95991;-72
2023/05/06 04:24:15;;;;;;;88.97;52.75;;;18.30;73.80;;;;;;4994887;28;94569;-69
2023/05/06 04:26:41;;;;;;;88.45;52.70;;;18.30;73.80;;;;;;4998925;28;96327;-72
2023/05/06 04:29:07;;;;;;;88.63;52.63;;;18.30;73.80;;;;;;5004876;28;94016;-70
2023/05/06 04:31:33;;;;;;;87.57;52.35;;;18.20;73.70;;;;;;4994361;28;95911;-71
2023/05/06 04:34:00;;;;;;;88.28;52.88;;;18.20;73.70;;;;;;4996206;28;94538;-71
2023/05/06 04:36:26;;;;;;;87.88;52.55;;;18.20;73.70;;;;;;5001350;28;94075;-71
2023/05/06 04:38:52;;;;;;;88.28;52.65;;;18.20;73.70;;;;;;5004846;28;94635;-72
2023/05/06 04:41:19;;;;;;;87.82;52.33;;;18.20;73.70;;;;;;5000040;28;95832;-70
2023/05/06 04:43:45;;;;;;;88.18;52.20;;;18.20;73.70;;;;;;5001551;28;95531;-72
2023/05/06 04:46:10;;;;;;;87.75;52.60;;;18.20;73.70;;;;;;5003978;28;94708;-72
2023/05/06 04:48:36;;;;;;;88.53;52.72;;;18.20;73.70;;;;;;4997498;28;94316;-70
2023/05/06 04:51:05;;;;;;;88.15;52.78;;;18.20;73.70;;;;;;5000680;28;95762;-71
2023/05/06 04:53:31;;;;;;;88.18;52.85;;;18.20;73.70;;;;;;4998051;28;94928;-72
2023/05/06 04:55:57;;;;;;;87.97;52.80;;;18.20;73.70;;;;;;4998696;28;95569;-73
2023/05/06 04:58:22;;;;;;;87.97;52.78;;;18.20;73.70;;;;;;4995689;28;94821;-72
2023/05/06 05:00:48;;;;;;;88.97;52.67;;;18.20;73.70;;;;;;5002086;28;94718;-73
2023/05/06 05:03:14;;;;;;;87.80;52.72;;;18.20;73.70;;;;;;4998514;28;94112;-71
2023/05/06 05:05:39;;;;;;;88.82;52.75;;;18.20;73.70;;;;;;4993440;28;94339;-73
2023/05/06 05:08:05;;;;;;;87.95;52.53;;;18.20;73.70;;;;;;4991161;28;94019;-72
2023/05/06 05:10:31;;;;;;;88.75;52.67;;;18.20;73.60;;;;;;4996620;28;94165;-70
2023/05/06 05:12:59;;;;;;;88.43;52.80;;;18.20;73.60;;;;;;4995103;28;96273;-72
2023/05/06 05:15:25;;;;;;;88.30;52.70;;;18.20;73.60;;;;;;4999852;28;94821;-70
2023/05/06 05:17:51;;;;;;;88.13;52.60;;;18.20;73.60;;;;;;5001329;28;94527;-72
2023/05/06 05:20:16;;;;;;;88.30;52.72;;;18.20;73.60;;;;;;4990839;28;99400;-72
2023/05/06 05:22:42;;;;;;;88.07;52.63;;;18.20;73.60;;;;;;4996598;28;99481;-73
2023/05/06 05:25:08;;;;;;;89.68;52.85;;;18.20;73.70;;;;;;4997169;28;94627;-73
2023/05/06 05:27:33;;;;;;;88.95;52.65;;;18.20;73.60;;;;;;4999823;28;94484;-71
2023/05/06 05:29:59;;;;;;;88.45;52.47;;;18.20;73.70;;;;;;4995556;28;94230;-74
2023/05/06 05:32:25;;;;;;;88.32;52.78;;;18.20;73.70;;;;;;4992888;28;94646;-74
2023/05/06 05:34:51;;;;;;;88.85;52.53;;;18.20;73.70;;;;;;4998922;28;94351;-73
2023/05/06 05:37:17;;;;;;;87.90;52.53;;;18.20;73.70;;;;;;5000552;28;94365;-74
2023/05/06 05:39:42;;;;;;;88.70;52.92;;;18.20;73.60;;;;;;4997113;28;95498;-73
2023/05/06 05:42:08;;;;;;;88.50;52.83;;;18.20;73.60;;;;;;4996939;28;97463;-72
2023/05/06 05:44:34;;;;;;;88.57;52.85;;;18.20;73.60;;;;;;4994462;28;95091;-73
2023/05/06 05:47:01;;;;;;;88.35;52.78;;;18.20;73.60;;;;;;4990016;28;94902;-73
2023/05/06 05:49:27;;;;;;;89.20;52.58;;;18.20;73.60;;;;;;4996769;28;94369;-73
2023/05/06 05:51:52;;;;;;;89.28;52.97;;;18.10;73.60;;;;;;4996625;28;95724;-74
2023/05/06 05:54:18;;;;;;;88.07;52.67;;;18.20;73.70;;;;;;5000015;28;94321;-71
2023/05/06 05:56:43;;;;;;;87.82;52.38;;;18.20;73.70;;;;;;4997760;28;93929;-73
2023/05/06 05:59:09;;;;;;;88.18;52.65;;;18.20;73.60;;;;;;4993573;28;95367;-73
2023/05/06 06:01:35;;;;;;;88.38;52.75;;;18.20;73.50;;;;;;4989770;28;94654;-72
2023/05/06 06:04:00;;;;;;;88.75;52.63;;;18.20;73.60;;;;;;4992897;28;95576;-74
2023/05/06 06:06:26;;;;;;;88.43;52.80;;;18.20;73.50;;;;;;4999047;28;94378;-71
2023/05/06 06:08:52;;;;;;;88.75;52.80;;;18.20;73.60;;;;;;4990723;28;94670;-74
2023/05/06 06:11:17;;;;;;;88.60;52.83;;;18.20;73.60;;;;;;4989498;28;95985;-74
2023/05/06 06:13:43;;;;;;;88.65;52.97;;;18.20;73.50;;;;;;4997181;28;96267;-73
2023/05/06 06:16:09;;;;;;;88.35;52.65;;;18.20;73.50;;;;;;4997059;28;94109;-73
2023/05/06 06:18:35;;;;;;;88.32;52.67;;;18.20;73.50;;;;;;4996539;28;95267;-71
2023/05/06 06:21:01;;;;;;;87.97;52.63;;;18.20;73.50;;;;;;5000298;28;94949;-73
2023/05/06 06:23:26;;;;;;;89.32;52.80;;;18.20;73.50;;;;;;4996189;28;94619;-74
2023/05/06 06:25:52;;;;;;;88.70;52.95;;;18.20;73.50;;;;;;4999719;28;95210;-74
2023/05/06 06:28:17;;;;;;;88.57;53.05;;;18.20;73.50;;;;;;4994142;28;98211;-73
2023/05/06 06:30:43;;;;;;;88.30;52.63;;;18.20;73.40;;;;;;4994812;28;94981;-73
2023/05/06 06:33:09;;;;;;;88.75;52.90;;;18.20;73.50;;;;;;4993410;28;94300;-71
2023/05/06 06:35:34;;;;;;;88.15;52.60;;;18.20;73.50;;;;;;4997411;28;94425;-72
2023/05/06 06:38:01;;;;;;;87.97;52.50;;;18.20;73.50;;;;;;4997099;28;95565;-73
2023/05/06 06:40:27;;;;;;;88.82;52.75;;;18.20;73.50;;;;;;4995745;28;94950;-73
2023/05/06 06:42:53;;;;;;;88.65;52.90;;;18.20;73.50;;;;;;4992648;28;93966;-73
2023/05/06 06:45:19;;;;;;;88.65;52.88;;;18.20;73.50;;;;;;5003405;28;94880;-73
2023/05/06 06:47:45;;;;;;;88.53;52.92;;;18.20;73.50;;;;;;4989239;28;94599;-72
2023/05/06 06:50:10;;;;;;;88.53;52.67;;;18.20;73.50;;;;;;4996232;28;94138;-73
2023/05/06 06:52:36;;;;;;;88.53;52.78;;;18.20;73.50;;;;;;4995677;28;96468;-70
2023/05/06 06:55:02;;;;;;;88.65;53.00;;;18.20;73.50;;;;;;4997712;28;93949;-73
2023/05/06 06:57:28;;;;;;;89.32;52.97;;;18.20;73.50;;;;;;4991454;28;95682;-72
2023/05/06 06:59:54;;;;;;;88.43;52.70;;;18.20;73.50;;;;;;4997091;28;96682;-73
2023/05/06 07:02:20;;;;;;;88.72;52.85;;;18.20;73.50;;;;;;4995572;28;94065;-72
2023/05/06 07:04:46;;;;;;;88.68;52.97;;;18.20;73.40;;;;;;4996397;28;95035;-72
2023/05/06 07:07:12;;;;;;;88.78;52.80;;;18.20;73.50;;;;;;4995086;28;94689;-72
2023/05/06 07:09:40;;;;;;;88.88;53.00;;;18.20;73.50;;;;;;5001849;28;94220;-71
2023/05/06 07:12:06;;;;;;;88.68;53.13;;;18.20;73.40;;;;;;4996398;28;94280;-72
2023/05/06 07:14:32;;;;;;;88.50;52.95;;;18.20;73.50;;;;;;4987428;28;94452;-71
2023/05/06 07:16:59;;;;;;;88.75;52.95;;;18.20;73.50;;;;;;4989162;28;97794;-73
2023/05/06 07:19:30;;;;;;;88.78;52.92;;;18.30;73.60;;;;;;4998929;28;94692;-72
2023/05/06 07:21:56;;;;;;;90.13;52.90;;;18.20;73.50;;;;;;4997094;28;94697;-71
2023/05/06 07:24:22;;;;;;;88.50;52.92;;;18.20;73.50;;;;;;5005984;28;94007;-72
2023/05/06 07:26:48;;;;;;;88.22;52.40;;;18.20;73.50;;;;;;5001289;28;95597;-73
2023/05/06 07:29:14;;;;;;;88.57;52.90;;;18.20;73.50;;;;;;4999001;28;94420;-72
2023/05/06 07:31:40;;;;;;;88.40;52.85;;;18.20;73.60;;;;;;4996561;28;93981;-73
2023/05/06 07:34:06;;;;;;;88.70;53.15;;;18.20;73.60;;;;;;4998088;28;94194;-72
2023/05/06 07:36:39;;;;;;;88.68;52.97;;;18.20;73.70;;;;;;4971954;28;94812;-72
2023/05/06 07:39:07;;;;;;;89.13;53.03;;;18.30;73.60;;;;;;4979263;28;96722;-72
2023/05/06 07:41:33;;;;;;;88.53;52.83;;;18.30;73.70;;;;;;4993294;28;96681;-72
2023/05/06 07:43:58;;;;;;;90.93;53.22;;;18.30;73.90;;;;;;4997493;28;95636;-74
2023/05/06 07:46:24;;;;;;;88.82;52.97;;;18.30;74.40;;;;;;4995586;28;96655;-74
2023/05/06 07:48:50;;;;;;;89.25;53.10;;;18.30;74.60;;;;;;4994601;28;95626;-72
2023/05/06 07:51:16;;;;;;;89.40;52.90;;;18.40;75.00;;;;;;4991370;28;94432;-75
2023/05/06 07:53:42;;;;;;;89.32;53.17;;;18.30;74.80;;;;;;4988075;28;95398;-74
2023/05/06 07:56:07;;;;;;;89.35;52.95;;;18.30;74.80;;;;;;4988742;28;95010;-76
2023/05/06 07:58:33;;;;;;;89.38;53.10;;;18.30;74.80;;;;;;4998242;28;95255;-73
2023/05/06 08:00:59;;;;;;;90.68;53.33;;;18.40;74.90;;;;;;4990659;28;94382;-77
2023/05/06 08:03:25;;;;;;;89.13;52.83;;;18.40;74.80;;;;;;4990609;28;95603;-73
2023/05/06 08:05:51;;;;;;;89.10;53.20;;;18.40;74.70;;;;;;4984937;28;95419;-74
2023/05/06 08:08:20;;;;;;;88.93;52.83;;;18.40;74.70;;;;;;5000306;28;95426;-76
2023/05/06 08:10:46;;;;;;;89.25;53.00;;;18.40;74.70;;;;;;5005377;28;94699;-75
2023/05/06 08:13:11;;;;;;;89.38;53.22;;;18.40;74.70;;;;;;4998416;28;94554;-75
2023/05/06 08:15:38;;;;;;;89.35;53.10;;;18.40;74.90;;;;;;4990146;28;94715;-72
2023/05/06 08:18:04;;;;;;;89.15;53.13;;;18.40;74.70;;;;;;4993154;28;96185;-77
2023/05/06 08:20:30;;;;;;;90.00;53.22;;;18.40;74.70;;;;;;4990874;28;95197;-77
2023/05/06 08:22:55;;;;;;;89.75;53.17;;;18.40;74.70;;;;;;4998386;28;93971;-76
2023/05/06 08:25:21;;;;;;;89.97;53.30;;;18.40;74.70;;;;;;5000076;28;94584;-76
2023/05/06 08:27:47;;;;;;;89.03;52.90;;;18.40;74.70;;;;;;4993800;28;96250;-73
2023/05/06 08:30:13;;;;;;;89.43;53.05;;;18.40;74.70;;;;;;4991587;28;96093;-78
2023/05/06 08:32:39;;;;;;;89.60;52.97;;;18.50;75.10;;;;;;4992276;28;94619;-76
2023/05/06 08:35:06;;;;;;;91.30;53.08;;;18.50;75.30;;;;;;4980277;28;95927;-80
2023/05/06 08:37:31;;;;;;;89.82;53.20;;;18.50;75.70;;;;;;4982901;28;95750;-77
2023/05/06 08:39:57;;;;;;;91.07;53.40;;;18.50;76.10;;;;;;4981936;28;96796;-78
2023/05/06 08:42:25;;;;;;;91.53;53.28;;;18.50;76.40;;;;;;4979265;28;96153;-76
2023/05/06 08:44:51;;;;;;;94.45;54.72;;;18.50;76.70;;;;;;4983005;28;95089;-76
2023/05/06 08:47:19;;;;;;;96.82;54.83;;;18.60;77.10;;;;;;4988466;28;94057;-77
2023/05/06 08:49:45;;;;;;;102.50;55.97;;;18.60;77.10;;;;;;4980145;28;99480;-73
2023/05/06 08:52:10;;;;;;;107.40;57.22;;;18.60;78.00;;;;;;4989077;28;95084;-76
2023/05/06 08:54:37;;;;;;;105.32;56.92;;;18.60;78.70;;;;;;4978748;28;96515;-75
2023/05/06 08:57:10;;;;;;;104.32;57.15;;;18.60;79.30;;;;;;4978110;28;99106;-73
2023/05/06 08:59:36;;;;;;;103.95;57.58;;;18.60;80.00;;;;;;4981355;28;95398;-76
2023/05/06 09:02:05;;;;;;;106.75;57.15;;;18.60;79.80;;;;;;4982827;28;94740;-77
2023/05/06 09:04:31;;;;;;;105.00;56.80;;;18.60;80.20;;;;;;4982713;28;95630;-78
2023/05/06 09:06:58;;;;;;;103.95;56.58;;;18.60;79.70;;;;;;4997122;28;94437;-73
2023/05/06 09:09:24;;;;;;;99.95;56.38;;;18.60;79.80;;;;;;5018027;27;96051;-74
2023/05/06 09:11:55;;;;;;;98.50;56.55;;;18.60;79.40;;;;;;4991529;28;98921;-73
2023/05/06 09:14:24;;;;;;;103.78;56.22;;;18.60;79.20;;;;;;4989976;28;95185;-72
2023/05/06 09:16:51;;;;;;;101.95;55.53;;;18.70;79.70;;;;;;4984899;28;95608;-74
2023/05/06 09:19:19;;;;;;;95.50;55.58;;;18.70;79.50;;;;;;4984002;28;95752;-73
2023/05/06 09:21:47;;;;;;;97.88;55.30;;;18.60;78.70;;;;;;4987495;28;96190;-73
2023/05/06 09:24:14;;;;;;;100.57;55.47;;;18.70;78.70;;;;;;4984100;28;95553;-75
2023/05/06 09:26:42;;;;;;;97.93;55.28;;;18.70;78.50;;;;;;4993676;28;95378;-74
2023/05/06 09:29:08;;;;;;;95.05;55.03;;;18.70;78.90;;;;;;4972612;28;96883;-72
2023/05/06 09:31:40;;;;;;;97.43;55.03;;;18.70;78.90;;;;;;4974591;28;95237;-75
2023/05/06 09:34:06;;;;;;;98.65;55.30;;;18.70;79.00;;;;;;4961486;28;97782;-72
2023/05/06 09:36:32;;;;;;;96.78;55.42;;;18.70;78.80;;;;;;4977894;28;95294;-74
2023/05/06 09:38:58;;;;;;;96.82;55.25;;;18.70;78.70;;;;;;4973209;28;95286;-77
2023/05/06 09:41:24;;;;;;;95.22;55.10;;;18.70;78.60;;;;;;4969336;28;97134;-74
2023/05/06 09:43:54;;;;;;;94.65;54.80;;;18.80;79.70;;;;;;4975180;28;100550;-77
2023/05/06 09:46:24;;;;;;;97.75;55.38;;;18.70;78.80;;;;;;4963444;28;97574;-72
2023/05/06 09:48:51;;;;;;;96.30;55.15;;;18.70;78.40;;;;;;4979227;28;100653;-74
2023/05/06 09:51:17;;;;;;;96.88;55.10;;;18.70;78.80;;;;;;4978122;28;96433;-75
2023/05/06 09:53:44;;;;;;;99.65;55.10;;;18.70;78.70;;;;;;4987811;28;94800;-76
2023/05/06 09:56:10;;;;;;;96.05;54.97;;;18.70;78.70;;;;;;4989956;28;95752;-76
2023/05/06 09:58:37;;;;;;;95.70;55.20;;;18.80;78.50;;;;;;4982978;28;95421;-75
2023/05/06 10:01:05;;;;;;;96.97;55.03;;;18.70;78.30;;;;;;4988346;28;94603;-76
2023/05/06 10:03:32;;;;;;;95.65;55.17;;;18.80;77.80;;;;;;4988799;28;94680;-76
2023/05/06 10:05:59;;;;;;;93.50;54.75;;;18.70;77.20;;;;;;4982154;28;95610;-72
2023/05/06 10:08:26;;;;;;;95.28;54.97;;;18.80;77.40;;;;;;4978640;28;95790;-75
2023/05/06 10:10:52;;;;;;;95.70;54.88;;;18.80;77.30;;;;;;4981178;28;96102;-70
2023/05/06 10:13:23;;;;;;;93.10;54.67;;;18.80;77.50;;;;;;4984693;28;94969;-77
2023/05/06 10:15:50;;;;;;;95.10;54.90;;;18.80;77.50;;;;;;4987370;28;96637;-75
2023/05/06 10:18:17;;;;;;;95.28;55.00;;;18.90;77.70;;;;;;4985447;28;95988;-74
2023/05/06 10:20:45;;;;;;;94.85;54.88;;;18.80;77.70;;;;;;4986495;28;95750;-76
2023/05/06 10:23:48;;;;;;;94.13;54.60;;;18.80;77.60;;;;;;4988686;28;94860;-74
2023/05/06 10:26:17;;;;;;;93.82;54.55;;;18.90;77.60;;;;;;4960812;28;94658;-76
2023/05/06 10:28:45;;;;;;;94.93;54.70;;;18.90;77.50;;;;;;4982666;28;95196;-79
2023/05/06 10:31:12;;;;;;;97.57;54.88;;;18.90;77.70;;;;;;4986110;28;100621;-75
2023/05/06 10:33:41;;;;;;;95.00;54.47;;;18.90;77.80;;;;;;5000386;28;95822;-74
2023/05/06 10:36:27;;;;;;;94.63;54.17;;;18.90;77.80;;;;;;5002724;28;95407;-74
2023/05/06 10:38:55;;;;;;;92.57;54.45;;;18.90;77.90;;;;;;4988445;28;96493;-77
2023/05/06 10:41:22;;;;;;;93.65;54.30;;;19.00;78.10;;;;;;5016588;22;94429;-45
2023/05/06 10:43:55;;;;;;;95.47;54.42;;;19.00;79.00;;;;;;4994971;28;94894;-44
2023/05/06 10:46:28;;;;;;;95.38;54.40;;;19.00;78.50;;;;;;4996148;28;95832;-45
2023/05/06 10:49:12;;;;;;;94.97;54.42;;;19.00;78.60;;;;;;4986991;28;94579;-47
2023/05/06 10:51:41;;;;;;;95.13;54.78;;;19.00;78.80;;;;;;4992185;28;94938;-45
2023/05/06 10:54:20;;;;;;;94.95;54.33;;;19.00;79.10;;;;;;4994153;28;97087;-48
2023/05/06 10:56:49;;;;;;;94.88;54.50;;;19.00;79.00;;;;;;5001477;28;94776;-47
2023/05/06 10:59:25;;;;;;;95.50;54.53;;;19.00;79.00;;;;;;4992005;28;96201;-48
2023/05/06 11:02:06;;;;;;;95.70;54.58;;;19.00;79.00;;;;;;4995407;28;96823;-44
2023/05/06 11:04:32;;;;;;;94.05;53.80;;;19.10;79.00;;;;;;4996167;28;96811;-44
2023/05/06 11:07:21;;;;;;;92.88;54.53;;;19.10;79.10;;;;;;4992092;28;95940;-45
2023/05/06 11:09:57;;;;;;;94.20;54.33;;;19.10;79.10;;;;;;4984091;28;96340;-48
2023/05/06 11:12:43;;;;;;;94.82;54.63;;;19.10;79.20;;;;;;4989043;28;95204;-46
2023/05/06 11:15:39;;;;;;;93.13;54.53;;;19.10;79.10;;;;;;4996602;28;95803;-45
2023/05/06 11:18:23;;;;;;;94.93;54.28;;;19.10;79.00;;;;;;4983756;28;95244;-46
2023/05/06 11:20:50;;;;;;;93.07;54.10;;;19.10;79.00;;;;;;4979452;28;94697;-47
2023/05/06 11:23:17;;;;;;;95.03;54.33;;;19.10;78.60;;;;;;4988640;28;94938;-45
2023/05/06 11:25:45;;;;;;;96.88;54.42;;;19.10;77.80;;;;;;4987412;28;96411;-46
2023/05/06 11:28:13;;;;;;;96.60;54.70;;;19.10;78.20;;;;;;4980220;28;95104;-44
2023/05/06 11:30:52;;;;;;;95.70;54.30;;;19.10;78.30;;;;;;4986803;28;97583;-47
2023/05/06 11:33:18;;;;;;;93.60;54.22;;;19.10;78.20;;;;;;4989190;28;95176;-48
2023/05/06 11:35:44;;;;;;;95.70;54.22;;;19.10;78.00;;;;;;4989928;28;100285;-44
2023/05/06 11:38:10;;;;;;;97.47;54.70;;;19.10;78.00;;;;;;4980962;28;94784;-49
2023/05/06 11:40:36;;;;;;;94.95;54.33;;;19.10;78.10;;;;;;4987088;28;94886;-47
2023/05/06 11:43:15;;;;;;;94.65;54.47;;;19.10;77.70;;;;;;4985724;28;94412;-45
2023/05/06 11:45:49;;;;;;;97.18;54.15;;;19.10;77.40;;;;;;4972356;28;95693;-48
2023/05/06 11:48:16;;;;;;;96.05;54.42;;;19.10;77.10;;;;;;4994794;28;96050;-45
2023/05/06 11:50:48;;;;;;;97.85;54.42;;;19.20;76.80;;;;;;4989082;28;95932;-47
2023/05/06 11:53:18;;;;;;;93.65;54.35;;;19.20;77.10;;;;;;4991178;28;95536;-47
2023/05/06 11:55:44;;;;;;;96.15;54.50;;;19.20;76.80;;;;;;4994844;27;95477;-47
2023/05/06 11:58:18;;;;;;;96.45;54.42;;;19.20;77.00;;;;;;4990752;28;96317;-50
2023/05/06 12:00:50;;;;;;;97.78;54.90;;;19.20;76.90;;;;;;4990298;28;96096;-49
2023/05/06 12:03:16;;;;;;;96.57;53.88;;;19.20;76.50;;;;;;4986219;28;95145;-47
2023/05/06 12:05:43;;;;;;;97.85;54.55;;;19.20;76.60;;;;;;4985697;28;101284;-46
2023/05/06 12:08:10;;;;;;;95.55;54.25;;;19.20;76.50;;;;;;4991146;28;94644;-47
2023/05/06 12:10:36;;;;;;;94.90;54.42;;;19.20;76.40;;;;;;4977746;28;95737;-45
2023/05/06 12:13:04;;;;;;;96.43;54.83;;;19.20;76.40;;;;;;4990299;28;95612;-46
2023/05/06 12:15:30;;;;;;;95.68;54.38;;;19.20;76.10;;;;;;4982969;28;96333;-48
2023/05/06 12:17:56;;;;;;;93.07;54.17;;;19.20;75.90;;;;;;4981680;28;100617;-45
2023/05/06 12:20:22;;;;;;;96.22;54.42;;;19.20;75.70;;;;;;4985653;28;95916;-47
2023/05/06 12:23:10;;;;;;;96.55;54.35;;;19.20;75.80;;;;;;4991941;28;96971;-46
2023/05/06 12:25:36;;;;;;;95.65;54.38;;;19.20;75.70;;;;;;4987359;28;97228;-49
2023/05/06 12:28:25;;;;;;;93.97;54.08;;;19.20;74.50;;;;;;4987503;28;94933;-45